Time;durP1;ratioP1;P1;durP2;ratioP2;P2;SDS_P1;SDS_P2;PMS_P1;PMS_P2;Temp;Humidity;BMP_temperature;BMP_pressure;BME280_temperature;BME280_humidity;BME280_pressure;Samples;Min_cycle;Max_cycle;Signal;HPM_P1;HPM_P2
2021/06/08 00:00:01;;;;;;;5.28;3.00;;;17.10;71.60;;;;;;4942682;28;20047;-81
2021/06/08 00:02:27;;;;;;;4.15;2.47;;;17.00;71.60;;;;;;4967119;28;20038;-82
2021/06/08 00:04:53;;;;;;;4.07;2.55;;;17.00;71.80;;;;;;4964833;28;20019;-82
2021/06/08 00:07:21;;;;;;;4.68;2.63;;;17.00;72.10;;;;;;4966225;28;20479;-81
2021/06/08 00:09:46;;;;;;;3.60;2.10;;;16.90;71.60;;;;;;4960400;28;20106;-82
2021/06/08 00:12:12;;;;;;;6.00;2.67;;;16.90;72.60;;;;;;4960188;28;20536;-82
2021/06/08 00:14:38;;;;;;;4.50;2.38;;;16.90;72.40;;;;;;4959612;28;20035;-83
2021/06/08 00:17:04;;;;;;;6.25;3.70;;;16.80;73.10;;;;;;4960248;28;20046;-82
2021/06/08 00:19:29;;;;;;;7.45;3.15;;;16.80;72.60;;;;;;4960745;28;20090;-82
2021/06/08 00:21:55;;;;;;;6.03;2.88;;;16.80;73.30;;;;;;4961616;28;20058;-82
2021/06/08 00:24:20;;;;;;;4.38;2.72;;;16.70;73.80;;;;;;4961081;28;20537;-82
2021/06/08 00:26:46;;;;;;;6.07;3.10;;;16.70;74.10;;;;;;4960836;28;20027;-81
2021/06/08 00:29:11;;;;;;;4.43;3.00;;;16.70;74.00;;;;;;4960428;28;20063;-81
2021/06/08 00:31:37;;;;;;;5.30;3.40;;;16.70;74.40;;;;;;4961301;28;20027;-82
2021/06/08 00:34:02;;;;;;;6.97;3.28;;;16.70;74.60;;;;;;4961441;28;20071;-82
2021/06/08 00:36:28;;;;;;;5.93;3.20;;;16.60;74.50;;;;;;4961156;28;20074;-81
2021/06/08 00:38:54;;;;;;;4.03;2.60;;;16.70;74.80;;;;;;4960569;28;20487;-81
2021/06/08 00:41:35;;;;;;;6.53;4.47;;;16.60;75.00;;;;;;4961010;28;20026;-81
2021/06/08 00:44:02;;;;;;;4.93;3.53;;;16.60;74.50;;;;;;4961090;28;20031;-81
2021/06/08 00:46:29;;;;;;;7.15;4.18;;;16.60;74.60;;;;;;4978358;28;20109;-82
2021/06/08 00:48:55;;;;;;;6.25;3.92;;;16.50;74.70;;;;;;4961676;28;20051;-81
2021/06/08 00:51:20;;;;;;;6.70;3.42;;;16.50;74.60;;;;;;4966070;28;20019;-79
2021/06/08 00:53:46;;;;;;;7.15;4.05;;;16.50;74.70;;;;;;4979916;28;20046;-81
2021/06/08 00:56:12;;;;;;;4.07;2.70;;;16.50;74.70;;;;;;4978584;28;20104;-81
2021/06/08 00:58:37;;;;;;;5.88;3.65;;;16.40;74.80;;;;;;4959612;29;20047;-81
2021/06/08 01:01:03;;;;;;;6.18;3.53;;;16.40;74.60;;;;;;4951643;29;20046;-83
2021/06/08 01:03:28;;;;;;;6.60;4.25;;;16.40;74.70;;;;;;4941484;29;20031;-82
2021/06/08 01:05:57;;;;;;;9.02;5.25;;;16.40;74.30;;;;;;4939531;29;20027;-83
2021/06/08 01:08:23;;;;;;;7.50;3.42;;;16.40;74.20;;;;;;4939688;29;20425;-83
2021/06/08 01:10:48;;;;;;;6.57;4.13;;;16.40;74.20;;;;;;4939643;29;20023;-83
2021/06/08 01:13:14;;;;;;;5.85;4.15;;;16.30;74.20;;;;;;4957158;29;20375;-82
2021/06/08 01:15:40;;;;;;;6.40;4.00;;;16.30;74.20;;;;;;4939424;29;20054;-83
2021/06/08 01:18:05;;;;;;;7.43;4.63;;;16.20;74.20;;;;;;4939855;29;20113;-83
2021/06/08 01:20:32;;;;;;;8.02;5.53;;;16.20;74.20;;;;;;4940933;29;20028;-81
2021/06/08 01:22:58;;;;;;;5.70;3.17;;;16.20;74.10;;;;;;4972826;28;20027;-82
2021/06/08 01:25:24;;;;;;;5.43;3.53;;;16.10;74.90;;;;;;4955248;29;20028;-83
2021/06/08 01:27:51;;;;;;;7.13;4.32;;;16.10;75.20;;;;;;4975759;28;20043;-82
2021/06/08 01:30:18;;;;;;;7.10;4.97;;;16.10;75.10;;;;;;4954507;28;20146;-82
2021/06/08 01:32:47;;;;;;;6.35;4.13;;;16.10;75.00;;;;;;4944248;29;20042;-82
2021/06/08 01:35:15;;;;;;;6.97;5.47;;;16.10;75.10;;;;;;4941711;29;20106;-83
2021/06/08 01:37:41;;;;;;;8.48;5.32;;;16.10;74.90;;;;;;4964656;29;20027;-83
2021/06/08 01:40:10;;;;;;;6.85;3.78;;;16.10;74.90;;;;;;4953015;29;20026;-84
2021/06/08 01:42:37;;;;;;;6.38;3.92;;;16.00;75.10;;;;;;4941849;29;20035;-83
2021/06/08 01:45:03;;;;;;;5.90;3.28;;;15.90;75.40;;;;;;4940455;29;20043;-82
2021/06/08 01:47:29;;;;;;;11.02;4.65;;;15.90;75.90;;;;;;4939445;29;20306;-82
2021/06/08 01:49:54;;;;;;;4.80;2.72;;;15.90;76.00;;;;;;4939917;29;20027;-82
2021/06/08 01:52:54;;;;;;;6.68;2.72;;;15.90;76.40;;;;;;4955242;29;20507;-82
2021/06/08 01:55:35;;;;;;;4.10;2.58;;;15.90;76.50;;;;;;4938960;29;20035;-82
2021/06/08 01:58:19;;;;;;;;;;;15.80;76.50;;;;;;4939221;29;20130;-82
2021/06/08 02:00:54;;;;;;;4.45;2.80;;;15.80;76.60;;;;;;4954813;29;19910;-81
2021/06/08 02:03:33;;;;;;;7.95;4.70;;;15.80;76.70;;;;;;4938797;29;20023;-82
2021/06/08 02:06:05;;;;;;;4.05;2.67;;;15.70;77.00;;;;;;4955644;29;20030;-81
2021/06/08 02:08:36;;;;;;;7.38;5.15;;;15.70;77.30;;;;;;4939424;29;20058;-81
2021/06/08 02:11:49;;;;;;;4.78;3.40;;;15.60;77.20;;;;;;4942810;29;20081;-82
2021/06/08 02:14:27;;;;;;;6.45;3.47;;;15.60;77.20;;;;;;4917109;29;20059;-82
2021/06/08 02:17:00;;;;;;;6.47;3.47;;;15.50;77.50;;;;;;4946170;29;20059;-81
2021/06/08 02:19:27;;;;;;;8.38;5.53;;;15.60;77.70;;;;;;4956510;29;20027;-82
2021/06/08 02:22:01;;;;;;;8.27;5.05;;;15.50;77.60;;;;;;4938393;29;20054;-82
2021/06/08 02:24:30;;;;;;;7.90;5.28;;;15.50;77.40;;;;;;4938310;29;20486;-82
2021/06/08 02:27:10;;;;;;;8.48;4.65;;;15.40;77.30;;;;;;4938102;29;20027;-82
2021/06/08 02:29:38;;;;;;;8.38;5.88;;;15.40;77.30;;;;;;4938244;29;20023;-81
2021/06/08 02:32:05;;;;;;;14.73;8.30;;;15.40;77.40;;;;;;4938053;29;20023;-82
2021/06/08 02:34:32;;;;;;;9.63;5.55;;;15.40;77.50;;;;;;4938227;29;20035;-82
2021/06/08 02:36:58;;;;;;;7.43;4.55;;;15.30;77.90;;;;;;4937960;29;20027;-81
2021/06/08 02:39:25;;;;;;;6.32;4.50;;;15.30;77.90;;;;;;4937828;29;20027;-80
2021/06/08 02:41:52;;;;;;;8.18;6.00;;;15.40;77.90;;;;;;4938164;29;20019;-81
2021/06/08 02:44:21;;;;;;;8.65;5.20;;;15.30;77.70;;;;;;4938516;29;20079;-82
2021/06/08 02:46:49;;;;;;;8.32;6.13;;;15.30;77.80;;;;;;4955486;29;20019;-81
2021/06/08 02:49:17;;;;;;;8.43;5.07;;;15.30;77.70;;;;;;4938534;29;20023;-82
2021/06/08 02:51:44;;;;;;;8.57;5.82;;;15.30;77.70;;;;;;4938245;29;20027;-82
2021/06/08 02:54:10;;;;;;;8.23;4.75;;;15.30;77.90;;;;;;4937884;29;20040;-81
2021/06/08 02:56:36;;;;;;;8.93;6.20;;;15.30;77.90;;;;;;4955497;29;20024;-82
2021/06/08 02:59:05;;;;;;;8.02;5.93;;;15.30;77.90;;;;;;4956476;28;20073;-82
2021/06/08 03:01:31;;;;;;;8.60;6.03;;;15.20;77.80;;;;;;4959471;28;20011;-81
2021/06/08 03:04:00;;;;;;;8.10;5.60;;;15.20;77.70;;;;;;4974681;28;20031;-80
2021/06/08 03:06:54;;;;;;;6.68;4.68;;;15.20;77.70;;;;;;4967586;28;20446;-81
2021/06/08 03:09:28;;;;;;;8.15;5.15;;;15.20;78.00;;;;;;4950913;28;20031;-81
2021/06/08 03:11:56;;;;;;;9.02;6.45;;;15.20;77.90;;;;;;4956995;28;20023;-82
2021/06/08 03:14:24;;;;;;;11.50;8.00;;;15.20;77.90;;;;;;4956713;28;20031;-83
2021/06/08 03:16:57;;;;;;;9.40;6.93;;;15.10;77.90;;;;;;4956692;28;20031;-82
2021/06/08 03:19:26;;;;;;;8.70;6.72;;;15.10;78.00;;;;;;4957245;28;20018;-82
2021/06/08 03:21:56;;;;;;;9.13;6.18;;;15.20;78.10;;;;;;4958499;28;20053;-82
2021/06/08 03:24:25;;;;;;;7.63;4.50;;;15.10;78.10;;;;;;4968559;28;20045;-82
2021/06/08 03:26:53;;;;;;;7.85;5.55;;;15.10;78.60;;;;;;4979313;28;20305;-82
2021/06/08 03:29:19;;;;;;;9.25;5.72;;;15.10;78.10;;;;;;4974667;28;20037;-80
2021/06/08 03:31:47;;;;;;;6.75;4.20;;;15.10;77.90;;;;;;4996427;28;20128;-81
2021/06/08 03:34:15;;;;;;;8.65;6.63;;;15.20;78.00;;;;;;4978168;28;20054;-81
2021/06/08 03:36:49;;;;;;;8.93;6.55;;;15.10;77.80;;;;;;4970455;28;20033;-81
2021/06/08 03:39:16;;;;;;;10.43;6.00;;;15.10;77.80;;;;;;4961544;28;20447;-82
2021/06/08 03:41:43;;;;;;;8.00;4.40;;;15.10;77.80;;;;;;4960526;28;20031;-82
2021/06/08 03:44:11;;;;;;;9.75;6.25;;;15.20;77.90;;;;;;4960432;28;20027;-82
2021/06/08 03:46:38;;;;;;;9.02;5.47;;;15.20;77.70;;;;;;4960216;28;20030;-82
2021/06/08 03:49:03;;;;;;;7.45;5.30;;;15.20;77.60;;;;;;4959861;28;20027;-82
2021/06/08 03:51:30;;;;;;;7.38;4.95;;;15.20;77.90;;;;;;4976134;28;20027;-81
2021/06/08 03:53:57;;;;;;;11.95;7.82;;;15.20;77.80;;;;;;4959790;28;20038;-81
2021/06/08 03:56:23;;;;;;;7.60;4.55;;;15.30;77.80;;;;;;4960205;28;20037;-82
2021/06/08 03:58:52;;;;;;;10.38;6.90;;;15.30;77.60;;;;;;4959758;28;20039;-82
2021/06/08 04:01:19;;;;;;;9.38;6.10;;;15.20;77.40;;;;;;4960146;28;20038;-82
2021/06/08 04:03:46;;;;;;;7.82;5.03;;;15.20;77.30;;;;;;4960415;28;20051;-82
2021/06/08 04:06:15;;;;;;;9.32;5.75;;;15.30;77.50;;;;;;4962616;28;20535;-82
2021/06/08 04:08:40;;;;;;;10.30;7.25;;;15.30;77.50;;;;;;4962947;28;20027;-83
2021/06/08 04:11:09;;;;;;;12.27;7.60;;;15.30;77.40;;;;;;4959982;28;20077;-83
2021/06/08 04:13:35;;;;;;;8.20;6.40;;;15.30;77.30;;;;;;4960093;28;20054;-83
2021/06/08 04:16:01;;;;;;;10.73;8.32;;;15.30;77.10;;;;;;4959921;28;20027;-82
2021/06/08 04:18:31;;;;;;;10.00;7.07;;;15.40;77.00;;;;;;4981276;28;20210;-82
2021/06/08 04:20:56;;;;;;;9.23;6.40;;;15.40;76.90;;;;;;4964620;28;20057;-82
2021/06/08 04:23:26;;;;;;;12.82;7.57;;;15.40;76.90;;;;;;4964116;28;20019;-82
2021/06/08 04:25:52;;;;;;;11.02;7.50;;;15.50;77.00;;;;;;4965485;28;20022;-82
2021/06/08 04:28:20;;;;;;;10.30;7.07;;;15.50;77.00;;;;;;4960291;28;20031;-83
2021/06/08 04:30:47;;;;;;;9.32;6.70;;;15.60;76.80;;;;;;4977158;28;20035;-82
2021/06/08 04:33:13;;;;;;;9.60;6.15;;;15.60;76.50;;;;;;4959680;28;20023;-82
2021/06/08 04:35:41;;;;;;;9.32;5.72;;;15.70;76.30;;;;;;4959658;28;20037;-81
2021/06/08 04:38:07;;;;;;;7.28;5.20;;;15.80;76.00;;;;;;4959515;28;20365;-82
2021/06/08 04:40:35;;;;;;;10.48;5.68;;;15.90;76.00;;;;;;4977156;28;20030;-82
2021/06/08 04:43:01;;;;;;;8.15;5.50;;;15.90;75.70;;;;;;4961569;28;20383;-85
2021/06/08 04:45:27;;;;;;;8.85;5.18;;;16.00;75.40;;;;;;4965337;28;20027;-83
2021/06/08 04:47:54;;;;;;;10.10;5.60;;;16.10;75.00;;;;;;4959289;28;20023;-83
2021/06/08 04:50:20;;;;;;;8.35;4.88;;;16.10;74.60;;;;;;4959643;28;20113;-81
2021/06/08 04:52:45;;;;;;;7.72;5.80;;;16.20;74.30;;;;;;4960101;28;20054;-83
2021/06/08 04:55:11;;;;;;;8.02;4.55;;;16.20;74.00;;;;;;4976804;28;20039;-82
2021/06/08 04:57:37;;;;;;;7.82;4.78;;;16.30;73.70;;;;;;4959057;28;20399;-81
2021/06/08 05:00:11;;;;;;;8.18;4.28;;;16.40;73.50;;;;;;4959498;28;20463;-81
2021/06/08 05:03:14;;;;;;;6.43;4.10;;;16.40;73.30;;;;;;4959284;28;20054;-80
2021/06/08 05:05:44;;;;;;;6.75;4.07;;;16.50;72.80;;;;;;4946298;28;20138;-82
2021/06/08 05:08:30;;;;;;;7.30;4.72;;;16.60;72.30;;;;;;4959332;28;20468;-81
2021/06/08 05:11:16;;;;;;;9.43;5.32;;;16.60;71.80;;;;;;4971701;28;20007;-80
2021/06/08 05:13:46;;;;;;;7.53;3.83;;;16.70;71.40;;;;;;4972500;28;20387;-82
2021/06/08 05:16:12;;;;;;;;;;;16.80;71.80;;;;;;4960002;28;20019;-82
2021/06/08 05:18:40;;;;;;;8.35;3.38;;;16.90;70.80;;;;;;4959420;28;19910;-82
2021/06/08 05:21:09;;;;;;;5.95;3.40;;;16.90;70.50;;;;;;4962730;28;20023;-80
2021/06/08 05:23:35;;;;;;;4.75;2.97;;;17.00;70.10;;;;;;4968699;28;20053;-81
2021/06/08 05:26:02;;;;;;;6.40;3.60;;;17.10;70.10;;;;;;4977257;28;20027;-81
2021/06/08 05:28:28;;;;;;;7.68;3.17;;;17.20;69.80;;;;;;4975281;28;20030;-81
2021/06/08 05:30:54;;;;;;;5.30;3.35;;;17.30;69.50;;;;;;4951159;28;20026;-82
2021/06/08 05:33:21;;;;;;;6.85;4.10;;;17.40;68.70;;;;;;4958295;28;20054;-81
2021/06/08 05:35:47;;;;;;;5.95;3.78;;;17.50;68.30;;;;;;4941218;29;20438;-82
2021/06/08 05:38:14;;;;;;;5.38;3.00;;;17.50;67.90;;;;;;4939311;29;20105;-82
2021/06/08 05:40:43;;;;;;;6.10;2.53;;;17.70;67.70;;;;;;4938478;29;20019;-82
2021/06/08 05:43:08;;;;;;;4.20;2.42;;;17.80;67.50;;;;;;4956425;28;20023;-81
2021/06/08 05:45:34;;;;;;;5.00;2.13;;;17.80;67.10;;;;;;4939270;29;20144;-81
2021/06/08 05:48:00;;;;;;;5.50;2.08;;;18.00;67.10;;;;;;4956567;29;20023;-81
2021/06/08 05:50:27;;;;;;;6.43;2.95;;;18.10;66.50;;;;;;4937939;29;20047;-82
2021/06/08 05:52:56;;;;;;;3.90;2.17;;;18.20;65.70;;;;;;4939057;29;20019;-83
2021/06/08 05:55:24;;;;;;;4.22;1.73;;;18.30;65.50;;;;;;4936939;29;20020;-84
2021/06/08 05:57:54;;;;;;;5.40;2.13;;;18.40;65.40;;;;;;4940048;29;20043;-83
2021/06/08 06:00:21;;;;;;;4.78;2.05;;;18.40;63.80;;;;;;4952258;29;20034;-83
2021/06/08 06:02:49;;;;;;;5.07;1.60;;;18.50;64.00;;;;;;4940064;29;20375;-81
2021/06/08 06:05:15;;;;;;;5.43;2.17;;;18.60;64.10;;;;;;4938973;29;20031;-81
2021/06/08 06:07:42;;;;;;;2.42;1.15;;;18.70;63.20;;;;;;4956906;28;20098;-82
2021/06/08 06:10:09;;;;;;;6.18;1.50;;;18.80;63.30;;;;;;4939709;29;20042;-82
2021/06/08 06:12:37;;;;;;;2.83;1.40;;;18.90;62.50;;;;;;4940886;29;20520;-82
2021/06/08 06:15:04;;;;;;;4.47;1.65;;;19.00;63.00;;;;;;4941237;29;20036;-82
2021/06/08 06:17:36;;;;;;;4.30;1.40;;;19.10;62.40;;;;;;4947298;29;20486;-83
2021/06/08 06:20:04;;;;;;;3.85;1.50;;;19.20;61.70;;;;;;4942424;29;20110;-83
2021/06/08 06:22:31;;;;;;;3.08;1.20;;;19.20;60.90;;;;;;4941168;29;20114;-83
2021/06/08 06:24:56;;;;;;;3.22;1.50;;;19.30;61.40;;;;;;4937760;29;20480;-82
2021/06/08 06:27:22;;;;;;;5.47;1.77;;;19.40;60.80;;;;;;4924359;29;20028;-82
2021/06/08 06:29:48;;;;;;;3.45;1.70;;;19.60;60.40;;;;;;4925749;29;20039;-84
2021/06/08 06:32:14;;;;;;;4.03;1.40;;;19.60;59.80;;;;;;4940236;29;20483;-83
2021/06/08 06:34:39;;;;;;;4.53;1.88;;;19.70;60.10;;;;;;4938409;29;20035;-82
2021/06/08 06:37:07;;;;;;;4.38;1.95;;;19.80;60.10;;;;;;4940944;29;20024;-82
2021/06/08 06:39:35;;;;;;;2.30;1.35;;;20.00;60.00;;;;;;4939871;29;20031;-83
2021/06/08 06:42:03;;;;;;;4.57;2.08;;;20.10;60.40;;;;;;4937021;29;20026;-83
2021/06/08 06:44:31;;;;;;;5.38;2.00;;;20.30;60.10;;;;;;4936125;29;20408;-82
2021/06/08 06:46:57;;;;;;;4.07;1.50;;;20.40;58.90;;;;;;4919120;29;20020;-80
2021/06/08 06:49:24;;;;;;;3.85;2.00;;;20.50;58.90;;;;;;4935358;29;20035;-81
2021/06/08 06:51:49;;;;;;;3.13;1.40;;;20.60;58.30;;;;;;4935499;29;20149;-81
2021/06/08 06:54:17;;;;;;;3.45;1.50;;;20.70;58.70;;;;;;4920196;29;20028;-80
2021/06/08 06:56:44;;;;;;;4.13;2.05;;;20.80;59.50;;;;;;4938344;29;20062;-81
2021/06/08 06:59:10;;;;;;;5.70;1.92;;;20.80;57.80;;;;;;4937711;29;20023;-81
2021/06/08 07:01:36;;;;;;;3.17;1.50;;;20.80;57.00;;;;;;4937340;29;20118;-81
2021/06/08 07:04:04;;;;;;;4.10;1.40;;;21.00;58.10;;;;;;4919885;29;20091;-82
2021/06/08 07:06:30;;;;;;;2.42;0.73;;;21.10;57.40;;;;;;4935321;29;20452;-81
2021/06/08 07:08:58;;;;;;;3.55;1.20;;;21.20;58.80;;;;;;4936442;29;20110;-80
2021/06/08 07:11:25;;;;;;;3.67;1.77;;;21.40;58.50;;;;;;4936843;29;20028;-81
2021/06/08 07:13:51;;;;;;;3.70;2.20;;;21.50;58.10;;;;;;4923251;29;20114;-80
2021/06/08 07:16:19;;;;;;;2.83;1.40;;;21.60;57.20;;;;;;4923295;29;20024;-80
2021/06/08 07:18:48;;;;;;;1.52;0.90;;;21.70;58.40;;;;;;4951907;29;20028;-80
2021/06/08 07:21:16;;;;;;;1.98;0.93;;;21.80;58.40;;;;;;4929550;29;20028;-80
2021/06/08 07:23:44;;;;;;;4.65;2.45;;;21.90;57.60;;;;;;4936449;29;20480;-80
2021/06/08 07:26:53;;;;;;;2.75;1.35;;;22.00;56.90;;;;;;4921781;29;20023;-80
2021/06/08 07:29:19;;;;;;;3.97;1.60;;;22.20;57.00;;;;;;4955076;28;20113;-80
2021/06/08 07:31:54;;;;;;;4.35;1.90;;;22.20;56.90;;;;;;4925290;29;20068;-81
2021/06/08 07:34:26;;;;;;;5.25;2.20;;;22.30;56.80;;;;;;4939987;29;20099;-81
2021/06/08 07:36:55;;;;;;;3.03;1.50;;;22.40;56.20;;;;;;4937828;29;20030;-80
2021/06/08 07:39:46;;;;;;;5.18;1.80;;;22.50;56.90;;;;;;4920569;29;20388;-82
2021/06/08 07:42:21;;;;;;;5.40;1.73;;;22.40;56.00;;;;;;4919569;29;20457;-82
2021/06/08 07:44:57;;;;;;;6.25;2.20;;;22.60;57.10;;;;;;4919379;29;20035;-81
2021/06/08 07:47:25;;;;;;;4.22;2.60;;;22.70;56.10;;;;;;4935765;29;20020;-78
2021/06/08 07:49:54;;;;;;;4.20;2.33;;;22.90;56.50;;;;;;4945926;28;20055;-77
2021/06/08 07:52:20;;;;;;;2.58;1.30;;;23.00;56.20;;;;;;4937705;29;20057;-77
2021/06/08 07:54:47;;;;;;;5.03;2.50;;;23.00;56.50;;;;;;4955195;29;20040;-78
2021/06/08 07:57:13;;;;;;;4.78;2.28;;;23.10;52.80;;;;;;4937700;29;20062;-78
2021/06/08 07:59:41;;;;;;;5.65;3.08;;;23.20;52.50;;;;;;4937798;29;20035;-78
2021/06/08 08:02:08;;;;;;;5.85;2.85;;;23.30;53.10;;;;;;4937644;29;20024;-78
2021/06/08 08:04:38;;;;;;;5.07;1.95;;;23.40;51.90;;;;;;4954753;29;20030;-77
2021/06/08 08:07:04;;;;;;;;;;;23.50;53.80;;;;;;4955996;29;20405;-80
2021/06/08 08:09:30;;;;;;;6.68;2.70;;;23.50;53.80;;;;;;4937882;29;20056;-76
2021/06/08 08:11:57;;;;;;;4.30;1.98;;;23.50;51.10;;;;;;4937087;29;20027;-78
2021/06/08 08:14:25;;;;;;;5.85;2.78;;;23.60;54.20;;;;;;4937726;29;20035;-79
2021/06/08 08:16:52;;;;;;;3.85;2.60;;;23.60;50.00;;;;;;4941000;29;20027;-79
2021/06/08 08:19:19;;;;;;;6.15;2.38;;;23.70;51.50;;;;;;4941432;29;20539;-77
2021/06/08 08:21:45;;;;;;;4.53;2.70;;;23.90;53.60;;;;;;4941037;29;20078;-77
2021/06/08 08:24:11;;;;;;;3.42;1.83;;;24.10;53.40;;;;;;4958236;29;20035;-77
2021/06/08 08:26:38;;;;;;;7.63;2.88;;;24.20;53.30;;;;;;4941381;29;20074;-76
2021/06/08 08:29:04;;;;;;;5.93;3.10;;;24.20;53.50;;;;;;4941201;29;20019;-77
2021/06/08 08:31:31;;;;;;;5.32;2.72;;;24.40;53.00;;;;;;4941182;29;20098;-77
2021/06/08 08:33:58;;;;;;;4.47;2.90;;;24.30;49.70;;;;;;4958293;29;20059;-76
2021/06/08 08:36:28;;;;;;;5.05;3.05;;;24.30;49.50;;;;;;4943546;29;20094;-77
2021/06/08 08:38:53;;;;;;;;;;;24.40;52.30;;;;;;4941676;29;20027;-76
2021/06/08 08:41:20;;;;;;;3.25;1.92;;;24.60;51.70;;;;;;4943007;29;20302;-77
2021/06/08 08:43:48;;;;;;;5.50;3.00;;;24.90;53.40;;;;;;4941849;29;20476;-81
2021/06/08 08:46:14;;;;;;;4.50;2.10;;;25.10;52.50;;;;;;4940764;29;20480;-78
2021/06/08 08:48:42;;;;;;;5.15;3.35;;;25.20;52.00;;;;;;4940855;29;20034;-78
2021/06/08 08:51:10;;;;;;;5.25;3.28;;;25.30;49.60;;;;;;4958415;29;20046;-78
2021/06/08 08:53:36;;;;;;;5.25;1.95;;;25.40;49.70;;;;;;4941836;29;20019;-76
2021/06/08 08:56:03;;;;;;;6.20;3.38;;;25.40;52.70;;;;;;4940962;29;20067;-77
2021/06/08 08:58:29;;;;;;;7.32;3.50;;;25.50;48.00;;;;;;4942006;29;20393;-76
2021/06/08 09:00:59;;;;;;;4.35;2.50;;;25.60;47.50;;;;;;4944796;29;20023;-77
2021/06/08 09:03:25;;;;;;;6.03;3.08;;;25.70;48.20;;;;;;4941738;29;20059;-78
2021/06/08 09:05:58;;;;;;;5.15;3.47;;;25.70;50.00;;;;;;4941872;29;20412;-78
2021/06/08 09:08:24;;;;;;;5.93;2.92;;;25.80;47.70;;;;;;4958459;29;20019;-77
2021/06/08 09:10:50;;;;;;;4.38;2.65;;;25.60;48.20;;;;;;4965561;29;20027;-77
2021/06/08 09:13:17;;;;;;;7.35;3.83;;;25.50;49.80;;;;;;4941926;29;20472;-78
2021/06/08 09:15:43;;;;;;;4.75;2.80;;;25.40;48.50;;;;;;4940526;29;20046;-79
2021/06/08 09:18:10;;;;;;;8.55;4.68;;;25.30;49.00;;;;;;4939810;29;20031;-78
2021/06/08 09:20:37;;;;;;;6.05;2.60;;;25.20;47.00;;;;;;4959980;29;20078;-78
2021/06/08 09:23:06;;;;;;;7.68;4.18;;;25.20;49.00;;;;;;4954197;29;20034;-78
2021/06/08 09:25:37;;;;;;;6.05;3.42;;;25.30;49.00;;;;;;4967708;29;20035;-77
2021/06/08 09:28:15;;;;;;;8.82;4.72;;;25.40;48.40;;;;;;4936782;29;20162;-78
2021/06/08 09:30:41;;;;;;;7.57;3.95;;;25.60;48.90;;;;;;4954491;29;20047;-78
2021/06/08 09:33:35;;;;;;;6.68;3.65;;;25.60;48.20;;;;;;4929106;29;20028;-77
2021/06/08 09:36:03;;;;;;;5.18;3.63;;;25.80;47.50;;;;;;4942638;29;20123;-75
2021/06/08 09:38:35;;;;;;;6.15;2.70;;;25.90;47.30;;;;;;4920729;29;20086;-76
2021/06/08 09:41:27;;;;;;;7.60;4.53;;;25.90;50.10;;;;;;4919843;29;20024;-76
2021/06/08 09:43:58;;;;;;;4.68;3.10;;;25.90;47.90;;;;;;4938352;29;20024;-78
2021/06/08 09:46:44;;;;;;;5.97;2.80;;;25.90;48.40;;;;;;4919268;29;20265;-79
2021/06/08 09:49:10;;;;;;;5.80;4.13;;;26.00;50.90;;;;;;4917549;29;20102;-78
2021/06/08 09:52:01;;;;;;;3.38;1.80;;;26.30;49.10;;;;;;4918364;29;20027;-78
2021/06/08 09:54:50;;;;;;;5.97;3.85;;;26.50;53.70;;;;;;4924217;29;20617;-76
2021/06/08 09:57:22;;;;;;;4.37;2.93;;;26.80;49.20;;;;;;4936727;29;20095;-75
2021/06/08 09:59:51;;;;;;;6.90;4.47;;;27.00;47.70;;;;;;4919841;29;20024;-77
2021/06/08 10:02:23;;;;;;;9.52;4.63;;;27.00;45.60;;;;;;4919453;29;20023;-76
2021/06/08 10:04:49;;;;;;;6.93;4.20;;;27.20;47.10;;;;;;4919392;29;20392;-78
2021/06/08 10:07:29;;;;;;;5.75;3.80;;;27.40;45.80;;;;;;4919227;29;20046;-77
2021/06/08 10:10:21;;;;;;;5.70;3.15;;;27.40;46.00;;;;;;4936704;29;20024;-76
2021/06/08 10:13:19;;;;;;;5.72;4.00;;;27.30;48.60;;;;;;4937031;29;20059;-76
2021/06/08 10:15:57;;;;;;;4.53;2.38;;;27.10;46.70;;;;;;4934830;29;20520;-78
2021/06/08 10:18:41;;;;;;;4.47;2.40;;;26.90;50.70;;;;;;4936860;29;20567;-76
2021/06/08 10:21:07;;;;;;;7.10;3.55;;;26.80;51.60;;;;;;4920067;29;20024;-77
2021/06/08 10:23:33;;;;;;;4.68;3.08;;;27.00;46.70;;;;;;4918918;29;20027;-79
2021/06/08 10:26:05;;;;;;;5.00;3.63;;;27.10;48.60;;;;;;4919861;29;20024;-76
2021/06/08 10:28:31;;;;;;;4.10;2.50;;;27.00;47.90;;;;;;4919587;29;20082;-77
2021/06/08 10:30:58;;;;;;;9.00;3.45;;;27.30;51.10;;;;;;4918905;29;20082;-76
2021/06/08 10:33:24;;;;;;;4.68;2.15;;;27.50;47.50;;;;;;4936533;29;20111;-77
2021/06/08 10:35:51;;;;;;;6.82;3.42;;;27.60;48.00;;;;;;4935630;29;20484;-76
2021/06/08 10:38:19;;;;;;;5.78;3.33;;;27.50;44.80;;;;;;4916945;29;20035;-77
2021/06/08 10:40:48;;;;;;;4.45;2.72;;;27.70;44.00;;;;;;4935572;29;20027;-77
2021/06/08 10:43:19;;;;;;;5.07;3.20;;;27.90;48.40;;;;;;4937149;29;20033;-77
2021/06/08 10:45:45;;;;;;;5.40;2.92;;;28.10;45.90;;;;;;4919855;29;20019;-78
2021/06/08 10:48:17;;;;;;;5.72;3.97;;;28.20;48.60;;;;;;4918226;29;20528;-77
2021/06/08 10:50:48;;;;;;;3.88;2.38;;;28.30;43.40;;;;;;4937865;29;20028;-78
2021/06/08 10:53:29;;;;;;;4.05;2.15;;;28.20;49.90;;;;;;4919136;29;20083;-77
2021/06/08 10:55:55;;;;;;;6.03;3.25;;;28.10;47.70;;;;;;4918486;29;20052;-76
2021/06/08 10:58:42;;;;;;;6.82;3.60;;;28.10;45.50;;;;;;4918528;29;20048;-76
2021/06/08 11:01:48;;;;;;;4.95;2.72;;;28.20;51.20;;;;;;4939724;29;20039;-78
2021/06/08 11:04:24;;;;;;;3.35;1.92;;;28.20;52.70;;;;;;4923553;29;20040;-77
2021/06/08 11:06:58;;;;;;;5.78;3.90;;;28.20;52.70;;;;;;4921026;29;20039;-76
2021/06/08 11:09:23;;;;;;;5.93;3.97;;;28.30;45.60;;;;;;4935031;29;20024;-77
2021/06/08 11:11:57;;;;;;;7.32;3.40;;;28.20;45.70;;;;;;4919466;29;20544;-77
2021/06/08 11:14:30;;;;;;;5.38;3.95;;;28.20;50.00;;;;;;4935947;29;20083;-77
2021/06/08 11:17:10;;;;;;;5.43;2.97;;;28.10;44.60;;;;;;4918356;29;20028;-77
2021/06/08 11:19:43;;;;;;;5.47;2.35;;;28.00;51.10;;;;;;4936210;29;20514;-77
2021/06/08 11:22:09;;;;;;;4.88;3.00;;;27.80;54.50;;;;;;4935668;29;20449;-77
2021/06/08 11:24:37;;;;;;;4.93;3.03;;;27.80;52.90;;;;;;4920489;29;20469;-77
2021/06/08 11:27:03;;;;;;;3.83;1.85;;;27.70;52.20;;;;;;4928116;29;20024;-77
2021/06/08 11:29:41;;;;;;;2.50;1.23;;;27.70;54.50;;;;;;4951171;29;20523;-77
2021/06/08 11:32:07;;;;;;;3.13;2.00;;;27.50;55.20;;;;;;4938370;29;20179;-78
2021/06/08 11:35:12;;;;;;;4.20;2.50;;;27.40;55.60;;;;;;4946300;29;20040;-78
2021/06/08 11:37:48;;;;;;;3.65;1.83;;;27.40;54.50;;;;;;4947999;29;20039;-77
2021/06/08 11:40:32;;;;;;;6.88;3.85;;;27.80;55.70;;;;;;4938272;29;20152;-77
2021/06/08 11:42:58;;;;;;;5.50;2.38;;;28.10;51.80;;;;;;4942073;29;20038;-77
2021/06/08 11:45:42;;;;;;;7.57;4.13;;;28.40;53.80;;;;;;4921873;29;20376;-77
2021/06/08 11:48:30;;;;;;;5.57;3.83;;;28.70;46.40;;;;;;4934040;29;20087;-77
2021/06/08 11:50:57;;;;;;;5.18;2.85;;;29.10;42.60;;;;;;4920178;29;20026;-78
2021/06/08 11:53:22;;;;;;;5.47;2.53;;;29.30;45.50;;;;;;4921977;29;20072;-77
2021/06/08 11:56:11;;;;;;;4.43;2.40;;;29.20;50.80;;;;;;4921228;29;20066;-76
2021/06/08 11:58:39;;;;;;;8.05;4.97;;;29.10;52.60;;;;;;4938861;29;20138;-77
2021/06/08 12:01:08;;;;;;;4.00;2.15;;;29.20;43.80;;;;;;4921323;29;20028;-79
2021/06/08 12:03:38;;;;;;;5.18;2.58;;;29.10;51.50;;;;;;4921235;29;20481;-76
2021/06/08 12:06:06;;;;;;;3.78;2.25;;;29.10;50.90;;;;;;4937998;29;20086;-79
2021/06/08 12:08:33;;;;;;;7.32;3.22;;;29.00;52.90;;;;;;4938513;29;20087;-77
2021/06/08 12:11:11;;;;;;;4.35;2.05;;;28.80;51.10;;;;;;4921091;29;20101;-76
2021/06/08 12:13:40;;;;;;;5.03;2.95;;;29.00;52.20;;;;;;4921240;29;20028;-78
2021/06/08 12:16:06;;;;;;;7.90;2.75;;;29.50;48.40;;;;;;4936949;29;20075;-77
2021/06/08 12:18:36;;;;;;;5.18;3.17;;;29.90;48.90;;;;;;4938636;29;20054;-78
2021/06/08 12:21:08;;;;;;;4.03;2.22;;;30.10;47.10;;;;;;4920947;29;20030;-77
2021/06/08 12:23:36;;;;;;;4.93;2.20;;;30.20;49.10;;;;;;4921147;29;20117;-77
2021/06/08 12:26:12;;;;;;;5.38;3.80;;;30.30;48.80;;;;;;4920837;29;20326;-78
2021/06/08 12:28:40;;;;;;;4.50;2.33;;;30.40;42.50;;;;;;4921113;29;20024;-76
2021/06/08 12:31:20;;;;;;;5.22;2.85;;;30.30;50.40;;;;;;4938049;29;20036;-77
2021/06/08 12:33:48;;;;;;;6.57;4.40;;;30.30;46.40;;;;;;4921250;29;20434;-77
2021/06/08 12:36:15;;;;;;;3.80;2.65;;;30.20;41.00;;;;;;4920853;29;20035;-77
2021/06/08 12:38:54;;;;;;;5.30;3.38;;;30.40;50.50;;;;;;4920875;29;20421;-78
2021/06/08 12:41:25;;;;;;;5.95;4.00;;;30.50;50.30;;;;;;4920352;29;20020;-77
2021/06/08 12:43:55;;;;;;;4.30;2.33;;;30.60;49.30;;;;;;4920932;29;20115;-77
2021/06/08 12:46:38;;;;;;;4.78;2.58;;;30.40;48.80;;;;;;4935239;29;20031;-77
2021/06/08 12:49:15;;;;;;;4.43;2.65;;;29.80;50.70;;;;;;4939752;29;20023;-77
2021/06/08 12:51:42;;;;;;;5.38;3.30;;;29.50;48.60;;;;;;4943821;29;20166;-77
2021/06/08 12:54:25;;;;;;;3.17;2.10;;;29.70;38.20;;;;;;4944529;29;20554;-77
2021/06/08 12:56:54;;;;;;;6.50;4.60;;;30.00;42.30;;;;;;4963028;29;20038;-78
2021/06/08 12:59:28;;;;;;;5.38;2.70;;;30.20;42.60;;;;;;4945521;29;20027;-77
2021/06/08 13:01:54;;;;;;;3.95;2.35;;;30.30;49.30;;;;;;4939716;29;20082;-76